Terminal Aerodrome Forecast
Issued by NWS Caribou, ME

Home | Current Version | Previous Version | Text Only | Print | Product List | Glossary On
Versions: 1 2 3 4 5 6 7 8 9 10 11 12 13 14 15 16
957
FTUS41 KCAR 221730
TAFCAR
TAF
KCAR 221730Z 2218/2318 18006KT P6SM BKN050 OVC150
     FM230200 19010KT 3SM -SHRA OVC025
      TEMPO 2304/2308 3SM -TSRA OVC025CB
     FM230800 20008KT 3SM BR OVC020
     FM231300 22010KT P6SM BKN025
     FM231500 23010G18KT P6SM BKN050=

USA.gov is the U.S. government's official web portal to all federal, state and local government web resources and services.